Fairhope, Ohio
Current Conditions -  °F | °C
As of 2:51 AM on Thursday 23 Oct 2014 (Local Time) from KCAK Reporting Station
Broken Clouds Broken Clouds  
Wind Chill: 44°   Ceiling: 1200
Heat Index: 48°   Visibility: 10mi
Dew Point: 43°   Wind: 8mph
Humidity: 83%   Direction: 320°NW
Pressure: 30.18"   Gusts: NA
Location:  40.8665°N, 81.2396°W
Report Text: KCAK 230651Z 32007KT 10SM BKN012 09/06 A3018 RMK AO2 SLP224 T00890061 $
Loading
Personal Weather Stations






























Interactive Weather Map
Tropical Storm Tracking
New forecast layout! Learn more

10-Day Weather Forecast

Advertisements
Track Severe Weather on mobile